createdAt,value
2023-03-05T00:00:16.090Z,42.72
2023-03-05T00:02:42.851Z,42.71
2023-03-05T00:05:09.610Z,42.61
2023-03-05T00:07:36.290Z,42.74
2023-03-05T00:10:02.955Z,42.61
2023-03-05T00:12:29.620Z,42.68
2023-03-05T00:14:56.421Z,42.63
2023-03-05T00:17:23.123Z,42.64
2023-03-05T00:19:49.794Z,42.60
2023-03-05T00:22:16.478Z,42.65
2023-03-05T00:24:43.152Z,42.73
2023-03-05T00:27:09.867Z,42.59
2023-03-05T00:29:36.532Z,42.68
2023-03-05T00:32:03.268Z,42.62
2023-03-05T00:34:30.001Z,42.67
2023-03-05T00:36:56.670Z,42.67
2023-03-05T00:39:23.336Z,42.58
2023-03-05T00:41:50.011Z,42.71
2023-03-05T00:44:16.692Z,42.59
2023-03-05T00:46:43.419Z,42.72
2023-03-05T00:49:10.340Z,42.63
2023-03-05T00:51:37.024Z,42.71
2023-03-05T00:54:03.707Z,42.64
2023-03-05T00:56:30.358Z,42.68
2023-03-05T00:58:57.041Z,42.66
2023-03-05T01:01:23.737Z,42.62
2023-03-05T01:03:50.400Z,42.74
2023-03-05T01:06:17.122Z,42.64
2023-03-05T01:08:43.830Z,42.72
2023-03-05T01:11:10.738Z,42.54
2023-03-05T01:13:37.413Z,42.72
2023-03-05T01:16:04.110Z,42.70
2023-03-05T01:18:30.783Z,42.73
2023-03-05T01:20:57.437Z,42.63
2023-03-05T01:23:24.112Z,42.61
2023-03-05T01:25:50.995Z,42.75
2023-03-05T01:28:20.503Z,42.60
2023-03-05T01:30:47.175Z,42.76
2023-03-05T01:33:13.849Z,42.64
2023-03-05T01:35:40.539Z,42.68
2023-03-05T01:38:07.245Z,42.65
2023-03-05T01:40:33.916Z,42.68
2023-03-05T01:43:00.574Z,42.70
2023-03-05T01:45:27.266Z,42.64
2023-03-05T01:47:53.929Z,42.77
2023-03-05T01:50:20.808Z,42.66
2023-03-05T01:52:47.486Z,42.67
2023-03-05T01:55:14.192Z,42.72
2023-03-05T01:57:40.884Z,42.61
2023-03-05T02:00:07.556Z,42.72
2023-03-05T02:02:34.451Z,42.61
2023-03-05T02:05:01.101Z,42.70
2023-03-05T02:07:27.745Z,42.58
2023-03-05T02:09:54.400Z,42.75
2023-03-05T02:12:21.061Z,42.64
2023-03-05T02:14:47.766Z,42.66
2023-03-05T02:17:15.447Z,42.73
2023-03-05T02:19:42.101Z,42.61
2023-03-05T02:22:08.750Z,42.74
2023-03-05T02:24:35.418Z,42.61
2023-03-05T02:27:02.493Z,42.69
2023-03-05T02:29:29.172Z,42.64
2023-03-05T02:31:55.868Z,42.65
2023-03-05T02:34:22.556Z,42.57
2023-03-05T02:36:49.206Z,42.79
2023-03-05T02:39:15.870Z,42.61
2023-03-05T02:41:42.538Z,42.72
2023-03-05T02:44:09.215Z,42.61
2023-03-05T02:46:35.864Z,42.66
2023-03-05T02:49:02.506Z,42.69
2023-03-05T02:51:29.164Z,42.66
2023-03-05T02:53:55.826Z,42.76
2023-03-05T02:56:22.465Z,42.53
2023-03-05T02:58:49.106Z,42.70
2023-03-05T03:01:15.881Z,42.59
2023-03-05T03:03:42.600Z,42.62
2023-03-05T03:06:09.238Z,42.77
2023-03-05T03:08:35.898Z,42.58
2023-03-05T03:11:02.771Z,42.68
2023-03-05T03:13:29.621Z,42.62
2023-03-05T03:15:56.251Z,42.56
2023-03-05T03:18:22.888Z,42.75
2023-03-05T03:20:49.531Z,42.57
2023-03-05T03:23:16.174Z,42.71
2023-03-05T03:25:42.804Z,42.57
2023-03-05T03:28:09.483Z,42.74
2023-03-05T03:30:36.174Z,42.62
2023-03-05T03:33:02.825Z,42.61
2023-03-05T03:35:29.529Z,42.71
2023-03-05T03:37:56.234Z,42.64
2023-03-05T03:40:22.881Z,42.75
2023-03-05T03:42:49.743Z,42.63
2023-03-05T03:45:16.558Z,42.78
2023-03-05T03:47:43.449Z,42.65
2023-03-05T03:50:10.307Z,42.78
2023-03-05T03:52:36.973Z,42.63
2023-03-05T03:55:03.602Z,42.67
2023-03-05T03:57:30.279Z,42.75
2023-03-05T03:59:56.921Z,42.63
2023-03-05T04:02:23.615Z,42.75
2023-03-05T04:04:50.288Z,42.63
2023-03-05T04:07:17.159Z,42.70
2023-03-05T04:09:43.825Z,42.84
2023-03-05T04:12:10.501Z,42.62
2023-03-05T04:14:37.163Z,42.80
2023-03-05T04:17:04.039Z,42.67
2023-03-05T04:19:30.714Z,42.80
2023-03-05T04:21:57.394Z,42.65
2023-03-05T04:24:24.038Z,42.76
2023-03-05T04:26:50.694Z,42.64
2023-03-05T04:29:17.369Z,42.69
2023-03-05T04:31:43.995Z,42.69
2023-03-05T04:34:10.639Z,42.69
2023-03-05T04:36:37.310Z,42.83
2023-03-05T04:39:03.939Z,42.65
2023-03-05T04:41:30.796Z,42.81
2023-03-05T04:43:57.461Z,42.66
2023-03-05T04:46:24.170Z,42.82
2023-03-05T04:48:50.846Z,42.69
2023-03-05T04:51:17.479Z,42.71
2023-03-05T04:53:44.345Z,42.66
2023-03-05T04:56:11.001Z,42.69
2023-03-05T04:58:37.868Z,42.78
2023-03-05T05:01:04.585Z,42.60
2023-03-05T05:03:31.966Z,42.77
2023-03-05T05:05:58.633Z,42.65
2023-03-05T05:08:25.528Z,42.77
2023-03-05T05:10:52.188Z,42.76
2023-03-05T05:13:18.830Z,42.70
2023-03-05T05:15:45.470Z,42.80
2023-03-05T05:18:12.096Z,42.70
2023-03-05T05:20:38.977Z,42.85
2023-03-05T05:23:05.618Z,42.70
2023-03-05T05:25:32.529Z,42.79
2023-03-05T05:27:59.175Z,42.73
2023-03-05T05:30:25.809Z,42.88
2023-03-05T05:32:52.481Z,42.63
2023-03-05T05:35:19.217Z,42.86
2023-03-05T05:37:45.897Z,42.69
2023-03-05T05:40:12.551Z,42.91
2023-03-05T05:42:39.215Z,42.78
2023-03-05T05:45:06.062Z,42.84
2023-03-05T05:47:32.807Z,42.95
2023-03-05T05:49:59.434Z,42.78
2023-03-05T05:52:26.096Z,42.90
2023-03-05T05:54:52.753Z,42.72
2023-03-05T05:57:19.399Z,42.82
2023-03-05T05:59:46.064Z,42.97
2023-03-05T06:02:12.955Z,42.78
2023-03-05T06:04:39.610Z,42.91
2023-03-05T06:07:07.150Z,42.85
2023-03-05T06:09:33.781Z,42.92
2023-03-05T06:12:00.453Z,42.79
2023-03-05T06:14:27.106Z,42.83
2023-03-05T06:16:53.788Z,42.82
2023-03-05T06:19:20.472Z,42.77
2023-03-05T06:21:47.109Z,42.88
2023-03-05T06:24:13.755Z,42.77
2023-03-05T06:26:40.401Z,42.81
2023-03-05T06:29:07.062Z,42.76
2023-03-05T06:31:35.090Z,42.77
2023-03-05T06:34:03.568Z,42.88
2023-03-05T06:36:30.250Z,42.81
2023-03-05T06:38:56.904Z,42.90
2023-03-05T06:41:23.570Z,42.77
2023-03-05T06:43:50.223Z,42.82
2023-03-05T06:46:16.907Z,42.86
2023-03-05T06:48:43.579Z,42.79
2023-03-05T06:51:10.241Z,42.94
2023-03-05T06:53:36.931Z,42.82
2023-03-05T06:56:03.581Z,42.92
2023-03-05T06:58:30.213Z,42.84
2023-03-05T07:00:56.856Z,42.79
2023-03-05T07:03:23.512Z,42.86
2023-03-05T07:05:50.389Z,42.81
2023-03-05T07:08:17.055Z,42.91
2023-03-05T07:10:43.931Z,42.95
2023-03-05T07:13:10.580Z,42.81
2023-03-05T07:15:37.253Z,42.97
2023-03-05T07:18:03.921Z,42.77
2023-03-05T07:20:30.791Z,42.88
2023-03-05T07:22:57.434Z,42.93
2023-03-05T07:25:24.107Z,42.82
2023-03-05T07:27:50.783Z,42.96
2023-03-05T07:30:17.426Z,42.84
2023-03-05T07:32:44.060Z,42.88
2023-03-05T07:35:10.930Z,42.96
2023-03-05T07:37:37.575Z,42.84
2023-03-05T07:40:04.706Z,42.97
2023-03-05T07:42:31.398Z,42.83
2023-03-05T07:44:58.177Z,42.89
2023-03-05T07:47:25.038Z,42.92
2023-03-05T07:49:51.691Z,42.88
2023-03-05T07:52:18.369Z,42.95
2023-03-05T07:54:45.022Z,42.82
2023-03-05T07:57:11.654Z,42.93
2023-03-05T07:59:38.311Z,42.82
2023-03-05T08:02:04.948Z,42.99
2023-03-05T08:04:31.622Z,42.87
2023-03-05T08:06:58.342Z,42.84
2023-03-05T08:09:25.004Z,42.89
2023-03-05T08:11:51.644Z,42.96
2023-03-05T08:14:18.289Z,42.88
2023-03-05T08:16:48.567Z,42.92
2023-03-05T08:19:15.219Z,42.94
2023-03-05T08:21:41.862Z,42.88
2023-03-05T08:24:08.690Z,43.01
2023-03-05T08:26:35.365Z,42.88
2023-03-05T08:29:02.025Z,42.94
2023-03-05T08:31:28.926Z,42.97
2023-03-05T08:33:55.856Z,42.91
2023-03-05T08:36:22.519Z,43.01
2023-03-05T08:38:49.175Z,42.89
2023-03-05T08:41:15.840Z,42.94
2023-03-05T08:43:42.512Z,42.93
2023-03-05T08:46:09.545Z,42.92
2023-03-05T08:48:36.521Z,42.96
2023-03-05T08:51:03.211Z,42.91
2023-03-05T08:53:30.132Z,42.99
2023-03-05T08:55:56.810Z,42.88
2023-03-05T08:58:23.487Z,42.98
2023-03-05T09:00:50.203Z,42.91
2023-03-05T09:03:17.258Z,43.00
2023-03-05T09:05:44.004Z,42.99
2023-03-05T09:08:11.811Z,42.91
2023-03-05T09:10:38.478Z,42.93
2023-03-05T09:13:05.157Z,42.98
2023-03-05T09:15:31.829Z,42.95
2023-03-05T09:17:58.495Z,42.92
2023-03-05T09:20:25.249Z,42.91
2023-03-05T09:22:51.932Z,43.07
2023-03-05T09:25:18.581Z,42.90
2023-03-05T09:27:45.239Z,42.98
2023-03-05T09:30:11.878Z,42.88
2023-03-05T09:32:38.541Z,42.95
2023-03-05T09:35:05.394Z,42.99
2023-03-05T09:37:32.033Z,42.90
2023-03-05T09:39:58.694Z,42.93
2023-03-05T09:42:25.333Z,42.86
2023-03-05T09:44:52.010Z,42.95
2023-03-05T09:47:18.661Z,42.94
2023-03-05T09:49:45.291Z,42.92
2023-03-05T09:52:12.150Z,42.99
2023-03-05T09:54:38.794Z,42.98
2023-03-05T09:57:05.461Z,42.98
2023-03-05T09:59:32.114Z,42.98
2023-03-05T10:01:58.753Z,43.03
2023-03-05T10:04:25.427Z,42.97
2023-03-05T10:06:52.287Z,42.99
2023-03-05T10:09:19.121Z,42.91
2023-03-05T10:11:45.761Z,42.96
2023-03-05T10:14:12.663Z,43.04
2023-03-05T10:16:39.371Z,42.98
2023-03-05T10:19:06.234Z,43.05
2023-03-05T10:21:32.863Z,42.88
2023-03-05T10:23:59.497Z,42.98
2023-03-05T10:26:26.145Z,42.90
2023-03-05T10:28:52.799Z,42.95
2023-03-05T10:31:19.538Z,43.03
2023-03-05T10:33:46.219Z,42.93
2023-03-05T10:36:12.894Z,42.88
2023-03-05T10:38:39.550Z,42.93
2023-03-05T10:41:06.196Z,43.01
2023-03-05T10:43:32.857Z,42.99
2023-03-05T10:45:59.603Z,42.97
2023-03-05T10:48:26.355Z,42.96
2023-03-05T10:50:52.994Z,43.00
2023-03-05T10:53:19.632Z,43.04
2023-03-05T10:55:46.474Z,43.03
2023-03-05T10:58:13.102Z,42.99
2023-03-05T11:00:39.965Z,42.95
2023-03-05T11:03:06.668Z,42.97
2023-03-05T11:05:33.516Z,42.93
2023-03-05T11:08:00.146Z,42.98
2023-03-05T11:10:26.788Z,42.98
2023-03-05T11:12:53.490Z,42.97
2023-03-05T11:15:20.303Z,42.97
2023-03-05T11:17:46.944Z,43.03
2023-03-05T11:20:13.608Z,42.96
2023-03-05T11:22:40.246Z,42.88
2023-03-05T11:25:07.413Z,42.93
2023-03-05T11:27:34.062Z,42.99
2023-03-05T11:30:00.738Z,42.97
2023-03-05T11:32:27.495Z,42.90
2023-03-05T11:34:54.201Z,42.91
2023-03-05T11:37:20.844Z,42.92
2023-03-05T11:39:47.506Z,43.09
2023-03-05T11:42:14.377Z,43.02
2023-03-05T11:44:41.022Z,42.94
2023-03-05T11:47:07.669Z,42.96
2023-03-05T11:49:35.368Z,42.95
2023-03-05T11:52:02.303Z,42.99
2023-03-05T11:54:28.975Z,42.92
2023-03-05T11:56:55.611Z,42.90
2023-03-05T11:59:22.265Z,42.94
2023-03-05T12:01:48.897Z,42.95
2023-03-05T12:04:15.533Z,42.94
2023-03-05T12:06:42.626Z,42.92
2023-03-05T12:09:09.274Z,42.98
2023-03-05T12:11:35.942Z,42.93
2023-03-05T12:14:02.600Z,42.95
2023-03-05T12:16:29.290Z,43.01
2023-03-05T12:18:55.988Z,42.93
2023-03-05T12:21:22.615Z,42.96
2023-03-05T12:23:49.514Z,42.93
2023-03-05T12:26:17.209Z,42.99
2023-03-05T12:28:44.350Z,42.94
2023-03-05T12:31:11.258Z,42.93
2023-03-05T12:33:37.960Z,42.95
2023-03-05T12:36:04.644Z,42.95
2023-03-05T12:38:31.324Z,42.97
2023-03-05T12:40:57.982Z,42.87
2023-03-05T12:43:24.617Z,42.88
2023-03-05T12:45:51.258Z,42.96
2023-03-05T12:48:17.917Z,42.88
2023-03-05T12:50:44.766Z,42.92
2023-03-05T12:53:11.397Z,42.82
2023-03-05T12:55:38.064Z,42.77
2023-03-05T12:58:04.717Z,42.85
2023-03-05T13:00:31.636Z,42.80
2023-03-05T13:02:58.289Z,42.85
2023-03-05T13:05:24.920Z,42.73
2023-03-05T13:07:51.548Z,42.75
2023-03-05T13:10:18.191Z,42.77
2023-03-05T13:12:44.849Z,42.81
2023-03-05T13:15:11.548Z,42.83
2023-03-05T13:17:38.401Z,42.87
2023-03-05T13:20:07.489Z,42.79
2023-03-05T13:22:34.142Z,42.83
2023-03-05T13:25:00.808Z,42.78
2023-03-05T13:27:27.457Z,42.88
2023-03-05T13:29:54.084Z,42.72
2023-03-05T13:32:20.746Z,42.83
2023-03-05T13:34:48.105Z,42.77
2023-03-05T13:37:14.856Z,42.83
2023-03-05T13:39:41.451Z,42.79
2023-03-05T13:42:08.503Z,42.59
2023-03-05T13:44:35.120Z,42.72
2023-03-05T13:47:01.752Z,42.79
2023-03-05T13:49:28.402Z,42.72
2023-03-05T13:51:55.258Z,42.72
2023-03-05T13:54:21.877Z,42.69
2023-03-05T13:56:49.545Z,42.79
2023-03-05T13:59:16.148Z,42.75
2023-03-05T14:01:42.776Z,42.80
2023-03-05T14:04:09.390Z,42.76
2023-03-05T14:06:36.253Z,42.83
2023-03-05T14:09:02.869Z,42.73
2023-03-05T14:11:29.505Z,42.83
2023-03-05T14:13:56.145Z,42.76
2023-03-05T14:16:22.898Z,42.79
2023-03-05T14:18:49.611Z,42.83
2023-03-05T14:21:16.513Z,42.76
2023-03-05T14:23:43.194Z,42.64
2023-03-05T14:26:09.854Z,42.69
2023-03-05T14:28:36.501Z,42.72
2023-03-05T14:31:03.189Z,42.78
2023-03-05T14:33:29.892Z,42.75
2023-03-05T14:35:56.586Z,42.72
2023-03-05T14:38:23.260Z,42.78
2023-03-05T14:40:49.952Z,42.72
2023-03-05T14:43:16.622Z,42.84
2023-03-05T14:45:43.316Z,42.71
2023-03-05T14:48:10.737Z,42.77
2023-03-05T14:50:37.399Z,42.85
2023-03-05T14:55:51.532Z,42.79
2023-03-05T14:58:18.411Z,42.76
2023-03-05T15:00:45.075Z,42.82
2023-03-05T15:03:11.971Z,42.87
2023-03-05T15:05:38.825Z,42.78
2023-03-05T15:08:05.538Z,42.91
2023-03-05T15:10:32.224Z,42.85
2023-03-05T15:12:58.863Z,42.87
2023-03-05T15:15:25.521Z,42.86
2023-03-05T15:17:52.163Z,42.82
2023-03-05T15:20:18.838Z,42.84
2023-03-05T15:22:45.484Z,42.89
2023-03-05T15:25:12.129Z,42.90
2023-03-05T15:27:38.782Z,42.86
2023-03-05T15:30:06.053Z,42.81
2023-03-05T15:32:32.836Z,42.89
2023-03-05T15:34:59.546Z,42.81
2023-03-05T15:37:26.195Z,42.89
2023-03-05T15:39:53.066Z,42.95
2023-03-05T15:42:19.730Z,42.88
2023-03-05T15:44:46.372Z,42.93
2023-03-05T15:47:13.043Z,42.96
2023-03-05T15:49:39.698Z,42.91
2023-03-05T15:52:06.348Z,42.97
2023-03-05T15:54:32.995Z,42.91
2023-03-05T15:56:59.652Z,42.94
2023-03-05T15:59:26.304Z,43.03
2023-03-05T16:01:53.233Z,42.96
2023-03-05T16:04:19.925Z,42.96
2023-03-05T16:06:46.560Z,42.91
2023-03-05T16:09:13.212Z,42.95
2023-03-05T16:11:39.851Z,43.00
2023-03-05T16:14:06.512Z,42.96
2023-03-05T16:16:33.202Z,43.04
2023-03-05T16:19:00.136Z,42.97
2023-03-05T16:21:26.797Z,42.99
2023-03-05T16:23:55.739Z,42.95
2023-03-05T16:26:22.384Z,43.03
2023-03-05T16:28:49.576Z,43.06
2023-03-05T16:31:16.225Z,42.95
2023-03-05T16:36:29.811Z,43.00
2023-03-05T16:38:57.075Z,42.98
2023-03-05T16:41:24.316Z,43.05
2023-03-05T16:43:53.769Z,42.95
2023-03-05T16:46:20.723Z,43.06
2023-03-05T16:48:47.408Z,43.01
2023-03-05T16:51:14.068Z,42.76
2023-03-05T16:53:40.726Z,42.93
2023-03-05T16:56:07.374Z,43.05
2023-03-05T16:58:34.253Z,42.99
2023-03-05T17:01:00.976Z,42.90
2023-03-05T17:03:27.641Z,42.99
2023-03-05T17:05:54.292Z,42.86
2023-03-05T17:08:20.960Z,42.91
2023-03-05T17:10:47.590Z,43.06
2023-03-05T17:13:14.482Z,43.06
2023-03-05T17:18:12.879Z,43.01
2023-03-05T17:20:39.544Z,42.95
2023-03-05T17:23:07.245Z,43.02
2023-03-05T17:25:33.901Z,43.06
2023-03-05T17:28:00.785Z,43.02
2023-03-05T17:30:27.418Z,43.04
2023-03-05T17:32:54.134Z,43.07
2023-03-05T17:35:20.883Z,43.00
2023-03-05T17:37:47.544Z,43.07
2023-03-05T17:40:14.191Z,42.99
2023-03-05T17:42:40.836Z,43.10
2023-03-05T17:45:07.481Z,43.08
2023-03-05T17:47:34.109Z,43.05
2023-03-05T17:50:00.809Z,43.06
2023-03-05T17:52:27.486Z,43.04
2023-03-05T17:54:54.335Z,43.03
2023-03-05T17:57:20.999Z,43.09
2023-03-05T17:59:47.647Z,43.14
2023-03-05T18:02:14.308Z,43.05
2023-03-05T18:04:41.088Z,42.99
2023-03-05T18:07:07.759Z,43.04
2023-03-05T18:09:34.414Z,43.06
2023-03-05T18:12:01.061Z,43.07
2023-03-05T18:14:27.722Z,43.04
2023-03-05T18:16:54.940Z,43.06
2023-03-05T18:19:21.614Z,43.04
2023-03-05T18:21:48.281Z,43.16
2023-03-05T18:24:14.916Z,43.12
2023-03-05T18:26:41.562Z,43.12
2023-03-05T18:29:08.204Z,43.18
2023-03-05T18:31:34.823Z,43.06
2023-03-05T18:34:01.476Z,43.10
2023-03-05T18:36:28.122Z,43.10
2023-03-05T18:38:54.761Z,43.06
2023-03-05T18:41:21.400Z,43.15
2023-03-05T18:43:48.274Z,43.08
2023-03-05T18:46:15.149Z,43.07
2023-03-05T18:48:41.822Z,43.07
2023-03-05T18:51:08.472Z,43.11
2023-03-05T18:53:38.424Z,43.09
2023-03-05T18:56:05.090Z,43.11
2023-03-05T18:58:31.752Z,43.16
2023-03-05T19:00:58.445Z,43.11
2023-03-05T19:03:25.380Z,43.05
2023-03-05T19:05:52.025Z,43.11
2023-03-05T19:08:18.716Z,43.09
2023-03-05T19:10:45.359Z,43.18
2023-03-05T19:13:12.001Z,43.12
2023-03-05T19:15:38.684Z,43.13
2023-03-05T19:18:05.318Z,43.13
2023-03-05T19:20:31.977Z,43.08
2023-03-05T19:22:58.646Z,43.09
2023-03-05T19:25:25.524Z,43.16
2023-03-05T19:27:52.163Z,43.10
2023-03-05T19:30:18.816Z,43.11
2023-03-05T19:32:45.454Z,43.17
2023-03-05T19:35:12.074Z,43.10
2023-03-05T19:37:38.720Z,43.14
2023-03-05T19:40:05.355Z,43.14
2023-03-05T19:42:32.225Z,43.13
2023-03-05T19:45:00.182Z,43.17
2023-03-05T19:47:26.934Z,43.19
2023-03-05T19:49:53.586Z,43.17
2023-03-05T19:52:20.230Z,43.17
2023-03-05T19:54:46.862Z,43.12
2023-03-05T19:57:13.481Z,43.22
2023-03-05T19:59:40.133Z,43.11
2023-03-05T20:02:06.785Z,43.19
2023-03-05T20:04:33.432Z,43.12
2023-03-05T20:07:00.075Z,43.14
2023-03-05T20:09:26.748Z,43.17
2023-03-05T20:11:53.414Z,43.15
2023-03-05T20:14:20.297Z,43.13
2023-03-05T20:16:46.938Z,43.21
2023-03-05T20:19:13.582Z,43.13
2023-03-05T20:21:40.221Z,43.20
2023-03-05T20:24:09.494Z,43.10
2023-03-05T20:26:36.367Z,43.14
2023-03-05T20:29:03.011Z,43.22
2023-03-05T20:31:29.659Z,43.17
2023-03-05T20:33:56.368Z,43.12
2023-03-05T20:36:23.020Z,43.15
2023-03-05T20:38:49.658Z,43.18
2023-03-05T20:41:16.300Z,43.13
2023-03-05T20:43:42.983Z,43.18
2023-03-05T20:46:09.664Z,43.25
2023-03-05T20:48:36.307Z,43.17
2023-03-05T20:51:02.967Z,43.22
2023-03-05T20:53:29.617Z,43.20
2023-03-05T20:55:56.270Z,43.19
2023-03-05T20:58:22.900Z,43.15
2023-03-05T21:00:49.587Z,43.20
2023-03-05T21:03:16.251Z,43.14
2023-03-05T21:05:42.914Z,43.24
2023-03-05T21:08:09.570Z,43.17
2023-03-05T21:10:36.197Z,43.20
2023-03-05T21:13:02.834Z,43.17
2023-03-05T21:15:29.552Z,43.16
2023-03-05T21:17:56.231Z,43.15
2023-03-05T21:20:22.878Z,43.26
2023-03-05T21:22:49.518Z,43.26
2023-03-05T21:25:16.144Z,43.21
2023-03-05T21:27:42.790Z,43.22
2023-03-05T21:30:09.443Z,43.14
2023-03-05T21:32:36.167Z,43.15
2023-03-05T21:35:02.888Z,43.18
2023-03-05T21:37:29.555Z,43.07
2023-03-05T21:39:56.211Z,43.09
2023-03-05T21:42:22.872Z,43.20
2023-03-05T21:44:49.517Z,43.14
2023-03-05T21:47:16.177Z,43.20
2023-03-05T21:49:42.809Z,43.20
2023-03-05T21:52:09.450Z,43.21
2023-03-05T21:54:36.095Z,43.20
2023-03-05T21:57:02.744Z,43.22
2023-03-05T21:59:29.384Z,43.15
2023-03-05T22:01:56.015Z,43.27
2023-03-05T22:04:22.670Z,43.18
2023-03-05T22:06:49.330Z,43.13
2023-03-05T22:09:15.967Z,43.18
2023-03-05T22:11:42.629Z,43.21
2023-03-05T22:14:09.309Z,43.28
2023-03-05T22:16:36.002Z,43.22
2023-03-05T22:19:02.671Z,43.21
2023-03-05T22:21:29.328Z,43.24
2023-03-05T22:23:55.976Z,43.10
2023-03-05T22:26:22.636Z,43.15
2023-03-05T22:28:49.264Z,43.28
2023-03-05T22:31:15.893Z,43.19
2023-03-05T22:33:42.558Z,43.15
2023-03-05T22:36:09.193Z,43.21
2023-03-05T22:38:35.834Z,43.22
2023-03-05T22:41:02.483Z,43.28
2023-03-05T22:43:29.115Z,43.21
2023-03-05T22:45:55.844Z,43.26
2023-03-05T22:48:22.534Z,43.18
2023-03-05T22:50:49.424Z,43.22
2023-03-05T22:53:16.062Z,43.17
2023-03-05T22:55:42.703Z,43.19
2023-03-05T22:58:09.379Z,43.26
2023-03-05T23:00:36.061Z,43.18
2023-03-05T23:03:02.747Z,43.04
2023-03-05T23:05:29.429Z,43.17
2023-03-05T23:07:56.098Z,43.23
2023-03-05T23:10:24.432Z,43.24
2023-03-05T23:12:52.318Z,43.15
2023-03-05T23:15:18.950Z,43.15
2023-03-05T23:17:45.804Z,43.22
2023-03-05T23:20:12.461Z,43.19
2023-03-05T23:22:39.119Z,43.22
2023-03-05T23:25:05.776Z,43.09
2023-03-05T23:27:32.447Z,43.17
2023-03-05T23:29:59.083Z,43.26
2023-03-05T23:32:25.857Z,43.19
2023-03-05T23:34:52.743Z,43.24
2023-03-05T23:37:19.381Z,43.19
2023-03-05T23:39:46.024Z,43.25
2023-03-05T23:42:12.650Z,43.27
2023-03-05T23:44:39.334Z,43.20
2023-03-05T23:47:06.006Z,43.24
2023-03-05T23:49:32.705Z,43.21
2023-03-05T23:51:59.442Z,43.24
2023-03-05T23:54:26.092Z,43.26
2023-03-05T23:56:52.979Z,43.24
2023-03-05T23:59:19.619Z,43.21
